sensor_id;sensor_type;location;lat;lon;timestamp;P1;durP1;ratioP1;P2;durP2;ratioP2
73382;SDS011;61600;48.126;11.542;2023-08-06T00:00:20;5.10;;;2.95;;
73382;SDS011;61600;48.126;11.542;2023-08-06T00:07:37;7.68;;;2.53;;
73382;SDS011;61600;48.126;11.542;2023-08-06T00:10:03;6.97;;;3.10;;
73382;SDS011;61600;48.126;11.542;2023-08-06T00:12:29;6.13;;;3.35;;
73382;SDS011;61600;48.126;11.542;2023-08-06T00:14:55;11.07;;;3.53;;
73382;SDS011;61600;48.126;11.542;2023-08-06T00:17:21;5.82;;;3.10;;
73382;SDS011;61600;48.126;11.542;2023-08-06T00:19:46;4.43;;;2.85;;
73382;SDS011;61600;48.126;11.542;2023-08-06T00:22:12;5.07;;;2.90;;
73382;SDS011;61600;48.126;11.542;2023-08-06T00:24:38;4.90;;;3.22;;
73382;SDS011;61600;48.126;11.542;2023-08-06T00:27:04;5.72;;;2.90;;
73382;SDS011;61600;48.126;11.542;2023-08-06T00:29:30;5.00;;;2.78;;
73382;SDS011;61600;48.126;11.542;2023-08-06T00:31:55;4.22;;;2.30;;
73382;SDS011;61600;48.126;11.542;2023-08-06T00:34:21;4.32;;;2.67;;
73382;SDS011;61600;48.126;11.542;2023-08-06T00:36:47;4.45;;;2.30;;
73382;SDS011;61600;48.126;11.542;2023-08-06T00:39:13;4.20;;;2.30;;
73382;SDS011;61600;48.126;11.542;2023-08-06T00:41:39;6.97;;;2.78;;
73382;SDS011;61600;48.126;11.542;2023-08-06T00:44:04;3.92;;;2.60;;
73382;SDS011;61600;48.126;11.542;2023-08-06T00:46:31;3.78;;;2.30;;
73382;SDS011;61600;48.126;11.542;2023-08-06T00:48:58;5.07;;;2.55;;
73382;SDS011;61600;48.126;11.542;2023-08-06T00:51:24;5.20;;;2.63;;
73382;SDS011;61600;48.126;11.542;2023-08-06T00:53:50;5.07;;;2.50;;
73382;SDS011;61600;48.126;11.542;2023-08-06T00:56:18;4.32;;;2.53;;
73382;SDS011;61600;48.126;11.542;2023-08-06T00:58:44;3.88;;;2.50;;
73382;SDS011;61600;48.126;11.542;2023-08-06T01:01:11;3.70;;;2.00;;
73382;SDS011;61600;48.126;11.542;2023-08-06T01:03:36;5.20;;;2.60;;
73382;SDS011;61600;48.126;11.542;2023-08-06T01:06:02;4.35;;;2.35;;
73382;SDS011;61600;48.126;11.542;2023-08-06T01:08:40;3.42;;;2.20;;
73382;SDS011;61600;48.126;11.542;2023-08-06T01:11:21;4.00;;;2.45;;
73382;SDS011;61600;48.126;11.542;2023-08-06T01:14:02;4.50;;;2.40;;
73382;SDS011;61600;48.126;11.542;2023-08-06T01:16:35;4.03;;;2.60;;
73382;SDS011;61600;48.126;11.542;2023-08-06T01:19:03;4.95;;;2.95;;
73382;SDS011;61600;48.126;11.542;2023-08-06T01:21:28;4.30;;;2.78;;
73382;SDS011;61600;48.126;11.542;2023-08-06T01:23:54;4.75;;;3.08;;
73382;SDS011;61600;48.126;11.542;2023-08-06T01:26:27;7.43;;;3.30;;
73382;SDS011;61600;48.126;11.542;2023-08-06T01:29:28;5.53;;;3.40;;
73382;SDS011;61600;48.126;11.542;2023-08-06T01:31:50;4.70;;;2.63;;
73382;SDS011;61600;48.126;11.542;2023-08-06T01:34:23;5.82;;;2.95;;
73382;SDS011;61600;48.126;11.542;2023-08-06T01:36:50;5.15;;;2.60;;
73382;SDS011;61600;48.126;11.542;2023-08-06T01:39:17;6.45;;;3.22;;
73382;SDS011;61600;48.126;11.542;2023-08-06T01:41:46;5.47;;;3.03;;
73382;SDS011;61600;48.126;11.542;2023-08-06T01:49:04;7.88;;;3.17;;
73382;SDS011;61600;48.126;11.542;2023-08-06T01:51:30;5.80;;;3.13;;
73382;SDS011;61600;48.126;11.542;2023-08-06T01:53:56;6.00;;;3.78;;
73382;SDS011;61600;48.126;11.542;2023-08-06T01:56:21;6.22;;;2.95;;
73382;SDS011;61600;48.126;11.542;2023-08-06T01:58:47;4.85;;;2.85;;
73382;SDS011;61600;48.126;11.542;2023-08-06T02:01:13;5.18;;;2.80;;
73382;SDS011;61600;48.126;11.542;2023-08-06T02:03:38;4.85;;;2.72;;
73382;SDS011;61600;48.126;11.542;2023-08-06T02:06:04;6.47;;;2.88;;
73382;SDS011;61600;48.126;11.542;2023-08-06T02:08:30;4.30;;;2.63;;
73382;SDS011;61600;48.126;11.542;2023-08-06T02:10:55;4.65;;;2.38;;
73382;SDS011;61600;48.126;11.542;2023-08-06T02:13:24;4.38;;;2.38;;
73382;SDS011;61600;48.126;11.542;2023-08-06T02:15:49;4.75;;;2.55;;
73382;SDS011;61600;48.126;11.542;2023-08-06T02:18:15;4.43;;;2.40;;
73382;SDS011;61600;48.126;11.542;2023-08-06T02:20:41;6.95;;;2.85;;
73382;SDS011;61600;48.126;11.542;2023-08-06T02:23:09;4.35;;;2.78;;
73382;SDS011;61600;48.126;11.542;2023-08-06T02:25:35;3.80;;;2.22;;
73382;SDS011;61600;48.126;11.542;2023-08-06T02:28:01;3.85;;;2.17;;
73382;SDS011;61600;48.126;11.542;2023-08-06T02:30:27;4.30;;;1.95;;
73382;SDS011;61600;48.126;11.542;2023-08-06T02:32:53;5.20;;;1.90;;
73382;SDS011;61600;48.126;11.542;2023-08-06T02:35:19;5.80;;;2.63;;
73382;SDS011;61600;48.126;11.542;2023-08-06T02:37:45;3.95;;;2.05;;
73382;SDS011;61600;48.126;11.542;2023-08-06T02:40:10;5.00;;;2.17;;
73382;SDS011;61600;48.126;11.542;2023-08-06T02:42:36;5.38;;;2.55;;
73382;SDS011;61600;48.126;11.542;2023-08-06T02:45:02;4.30;;;2.38;;
73382;SDS011;61600;48.126;11.542;2023-08-06T02:47:29;3.22;;;1.80;;
73382;SDS011;61600;48.126;11.542;2023-08-06T02:49:54;4.90;;;2.05;;
73382;SDS011;61600;48.126;11.542;2023-08-06T02:52:20;5.22;;;1.88;;
73382;SDS011;61600;48.126;11.542;2023-08-06T02:54:46;3.55;;;2.10;;
73382;SDS011;61600;48.126;11.542;2023-08-06T02:57:11;3.78;;;2.10;;
73382;SDS011;61600;48.126;11.542;2023-08-06T02:59:37;3.30;;;2.00;;
73382;SDS011;61600;48.126;11.542;2023-08-06T03:02:03;3.63;;;1.90;;
73382;SDS011;61600;48.126;11.542;2023-08-06T03:04:29;4.95;;;2.30;;
73382;SDS011;61600;48.126;11.542;2023-08-06T03:06:54;3.70;;;2.15;;
73382;SDS011;61600;48.126;11.542;2023-08-06T03:09:20;2.97;;;1.80;;
73382;SDS011;61600;48.126;11.542;2023-08-06T03:11:46;3.45;;;1.80;;
73382;SDS011;61600;48.126;11.542;2023-08-06T03:14:12;5.35;;;2.17;;
73382;SDS011;61600;48.126;11.542;2023-08-06T03:16:37;5.88;;;2.25;;
73382;SDS011;61600;48.126;11.542;2023-08-06T03:19:03;3.83;;;1.67;;
73382;SDS011;61600;48.126;11.542;2023-08-06T03:21:29;2.60;;;1.42;;
73382;SDS011;61600;48.126;11.542;2023-08-06T03:23:54;4.35;;;2.03;;
73382;SDS011;61600;48.126;11.542;2023-08-06T03:26:20;3.05;;;1.60;;
73382;SDS011;61600;48.126;11.542;2023-08-06T03:28:46;3.30;;;2.10;;
73382;SDS011;61600;48.126;11.542;2023-08-06T03:31:11;4.00;;;2.00;;
73382;SDS011;61600;48.126;11.542;2023-08-06T03:33:37;2.50;;;1.60;;
73382;SDS011;61600;48.126;11.542;2023-08-06T03:36:03;3.25;;;2.03;;
73382;SDS011;61600;48.126;11.542;2023-08-06T03:38:29;3.28;;;1.88;;
73382;SDS011;61600;48.126;11.542;2023-08-06T03:40:54;3.35;;;1.90;;
73382;SDS011;61600;48.126;11.542;2023-08-06T03:43:20;3.40;;;1.80;;
73382;SDS011;61600;48.126;11.542;2023-08-06T03:45:46;2.60;;;1.58;;
73382;SDS011;61600;48.126;11.542;2023-08-06T03:48:12;5.43;;;1.90;;
73382;SDS011;61600;48.126;11.542;2023-08-06T03:50:37;3.40;;;1.60;;
73382;SDS011;61600;48.126;11.542;2023-08-06T03:53:04;3.20;;;2.00;;
73382;SDS011;61600;48.126;11.542;2023-08-06T03:55:29;5.03;;;1.75;;
73382;SDS011;61600;48.126;11.542;2023-08-06T03:57:55;4.22;;;1.52;;
73382;SDS011;61600;48.126;11.542;2023-08-06T04:00:21;2.92;;;1.83;;
73382;SDS011;61600;48.126;11.542;2023-08-06T04:02:47;2.85;;;1.65;;
73382;SDS011;61600;48.126;11.542;2023-08-06T04:05:13;3.47;;;1.50;;
73382;SDS011;61600;48.126;11.542;2023-08-06T04:07:39;2.53;;;1.45;;
73382;SDS011;61600;48.126;11.542;2023-08-06T04:10:04;2.70;;;1.50;;
73382;SDS011;61600;48.126;11.542;2023-08-06T04:12:30;3.90;;;1.90;;
73382;SDS011;61600;48.126;11.542;2023-08-06T04:14:58;4.00;;;1.90;;
73382;SDS011;61600;48.126;11.542;2023-08-06T04:17:24;2.03;;;1.40;;
73382;SDS011;61600;48.126;11.542;2023-08-06T04:19:50;3.60;;;1.75;;
73382;SDS011;61600;48.126;11.542;2023-08-06T04:22:17;4.35;;;1.63;;
73382;SDS011;61600;48.126;11.542;2023-08-06T04:24:43;2.60;;;1.60;;
73382;SDS011;61600;48.126;11.542;2023-08-06T04:27:10;2.35;;;1.50;;
73382;SDS011;61600;48.126;11.542;2023-08-06T04:29:36;2.80;;;1.60;;
73382;SDS011;61600;48.126;11.542;2023-08-06T04:32:03;4.88;;;1.65;;
73382;SDS011;61600;48.126;11.542;2023-08-06T04:34:31;5.00;;;2.15;;
73382;SDS011;61600;48.126;11.542;2023-08-06T04:36:57;2.78;;;1.70;;
73382;SDS011;61600;48.126;11.542;2023-08-06T04:39:22;3.97;;;1.90;;
73382;SDS011;61600;48.126;11.542;2023-08-06T04:41:48;3.85;;;1.80;;
73382;SDS011;61600;48.126;11.542;2023-08-06T04:44:14;3.00;;;1.55;;
73382;SDS011;61600;48.126;11.542;2023-08-06T04:46:40;3.70;;;1.50;;
73382;SDS011;61600;48.126;11.542;2023-08-06T04:49:05;3.72;;;1.73;;
73382;SDS011;61600;48.126;11.542;2023-08-06T04:51:31;4.05;;;1.77;;
73382;SDS011;61600;48.126;11.542;2023-08-06T04:53:57;3.28;;;1.63;;
73382;SDS011;61600;48.126;11.542;2023-08-06T04:56:23;2.92;;;1.50;;
73382;SDS011;61600;48.126;11.542;2023-08-06T04:58:48;2.83;;;1.40;;
73382;SDS011;61600;48.126;11.542;2023-08-06T05:01:14;2.72;;;1.25;;
73382;SDS011;61600;48.126;11.542;2023-08-06T05:03:40;4.63;;;2.25;;
73382;SDS011;61600;48.126;11.542;2023-08-06T05:06:06;2.90;;;1.75;;
73382;SDS011;61600;48.126;11.542;2023-08-06T05:08:31;3.50;;;1.65;;
73382;SDS011;61600;48.126;11.542;2023-08-06T05:10:57;2.67;;;1.48;;
73382;SDS011;61600;48.126;11.542;2023-08-06T05:13:23;4.32;;;1.60;;
73382;SDS011;61600;48.126;11.542;2023-08-06T05:15:48;2.90;;;1.50;;
73382;SDS011;61600;48.126;11.542;2023-08-06T05:18:14;3.88;;;1.40;;
73382;SDS011;61600;48.126;11.542;2023-08-06T05:20:40;3.17;;;1.58;;
73382;SDS011;61600;48.126;11.542;2023-08-06T05:23:07;2.63;;;1.40;;
73382;SDS011;61600;48.126;11.542;2023-08-06T05:25:36;2.10;;;1.27;;
73382;SDS011;61600;48.126;11.542;2023-08-06T05:28:02;2.63;;;1.30;;
73382;SDS011;61600;48.126;11.542;2023-08-06T05:30:28;4.95;;;1.60;;
73382;SDS011;61600;48.126;11.542;2023-08-06T05:32:54;2.28;;;1.20;;
73382;SDS011;61600;48.126;11.542;2023-08-06T05:35:21;2.83;;;1.40;;
73382;SDS011;61600;48.126;11.542;2023-08-06T05:37:47;2.60;;;1.35;;
73382;SDS011;61600;48.126;11.542;2023-08-06T05:40:13;4.75;;;1.55;;
73382;SDS011;61600;48.126;11.542;2023-08-06T05:42:39;2.50;;;1.45;;
73382;SDS011;61600;48.126;11.542;2023-08-06T05:45:06;2.10;;;1.20;;
73382;SDS011;61600;48.126;11.542;2023-08-06T05:47:32;3.72;;;1.70;;
73382;SDS011;61600;48.126;11.542;2023-08-06T05:49:58;2.90;;;1.60;;
73382;SDS011;61600;48.126;11.542;2023-08-06T05:52:23;3.75;;;1.63;;
73382;SDS011;61600;48.126;11.542;2023-08-06T05:54:49;2.95;;;1.58;;
73382;SDS011;61600;48.126;11.542;2023-08-06T05:57:15;2.35;;;1.30;;
73382;SDS011;61600;48.126;11.542;2023-08-06T05:59:41;4.25;;;1.17;;
73382;SDS011;61600;48.126;11.542;2023-08-06T06:02:07;2.63;;;1.30;;
73382;SDS011;61600;48.126;11.542;2023-08-06T06:04:33;5.63;;;1.58;;
73382;SDS011;61600;48.126;11.542;2023-08-06T06:06:59;4.00;;;1.48;;
73382;SDS011;61600;48.126;11.542;2023-08-06T06:09:25;4.18;;;1.17;;
73382;SDS011;61600;48.126;11.542;2023-08-06T06:11:50;1.70;;;1.00;;
73382;SDS011;61600;48.126;11.542;2023-08-06T06:14:17;4.03;;;1.40;;
73382;SDS011;61600;48.126;11.542;2023-08-06T06:16:43;1.98;;;1.10;;
73382;SDS011;61600;48.126;11.542;2023-08-06T06:19:09;2.65;;;1.40;;
73382;SDS011;61600;48.126;11.542;2023-08-06T06:21:34;2.95;;;1.38;;
73382;SDS011;61600;48.126;11.542;2023-08-06T06:24:00;3.03;;;1.00;;
73382;SDS011;61600;48.126;11.542;2023-08-06T06:26:26;2.65;;;1.27;;
73382;SDS011;61600;48.126;11.542;2023-08-06T06:28:52;2.58;;;1.00;;
73382;SDS011;61600;48.126;11.542;2023-08-06T06:31:17;3.00;;;1.17;;
73382;SDS011;61600;48.126;11.542;2023-08-06T06:33:43;2.20;;;1.20;;
73382;SDS011;61600;48.126;11.542;2023-08-06T06:36:09;2.33;;;1.33;;
73382;SDS011;61600;48.126;11.542;2023-08-06T06:38:35;2.72;;;1.30;;
73382;SDS011;61600;48.126;11.542;2023-08-06T06:41:01;3.22;;;1.20;;
73382;SDS011;61600;48.126;11.542;2023-08-06T06:43:28;3.50;;;1.10;;
73382;SDS011;61600;48.126;11.542;2023-08-06T06:45:57;1.67;;;1.00;;
73382;SDS011;61600;48.126;11.542;2023-08-06T06:48:27;3.15;;;1.10;;
73382;SDS011;61600;48.126;11.542;2023-08-06T06:50:54;1.95;;;1.00;;
73382;SDS011;61600;48.126;11.542;2023-08-06T06:53:21;2.45;;;1.13;;
73382;SDS011;61600;48.126;11.542;2023-08-06T06:55:53;3.03;;;1.17;;
73382;SDS011;61600;48.126;11.542;2023-08-06T06:58:22;1.60;;;1.02;;
73382;SDS011;61600;48.126;11.542;2023-08-06T07:00:48;1.88;;;1.00;;
73382;SDS011;61600;48.126;11.542;2023-08-06T07:03:14;4.22;;;1.20;;
73382;SDS011;61600;48.126;11.542;2023-08-06T07:08:07;3.72;;;1.00;;
73382;SDS011;61600;48.126;11.542;2023-08-06T07:10:32;1.70;;;0.98;;
73382;SDS011;61600;48.126;11.542;2023-08-06T07:12:58;1.27;;;0.85;;
73382;SDS011;61600;48.126;11.542;2023-08-06T07:15:24;3.58;;;0.70;;
73382;SDS011;61600;48.126;11.542;2023-08-06T07:17:50;1.77;;;0.65;;
73382;SDS011;61600;48.126;11.542;2023-08-06T07:20:15;3.95;;;1.25;;
73382;SDS011;61600;48.126;11.542;2023-08-06T07:22:41;1.42;;;0.50;;
73382;SDS011;61600;48.126;11.542;2023-08-06T07:25:07;2.85;;;0.68;;
73382;SDS011;61600;48.126;11.542;2023-08-06T07:27:33;2.58;;;1.02;;
73382;SDS011;61600;48.126;11.542;2023-08-06T07:29:58;1.23;;;0.60;;
73382;SDS011;61600;48.126;11.542;2023-08-06T07:32:24;0.90;;;0.52;;
73382;SDS011;61600;48.126;11.542;2023-08-06T07:34:50;2.28;;;0.85;;
73382;SDS011;61600;48.126;11.542;2023-08-06T07:37:21;1.73;;;0.80;;
73382;SDS011;61600;48.126;11.542;2023-08-06T07:39:47;1.65;;;0.77;;
73382;SDS011;61600;48.126;11.542;2023-08-06T07:42:13;3.25;;;1.00;;
73382;SDS011;61600;48.126;11.542;2023-08-06T07:44:39;1.35;;;0.60;;
73382;SDS011;61600;48.126;11.542;2023-08-06T07:47:12;1.13;;;0.70;;
73382;SDS011;61600;48.126;11.542;2023-08-06T07:49:38;3.20;;;0.80;;
73382;SDS011;61600;48.126;11.542;2023-08-06T07:52:03;1.38;;;0.57;;
73382;SDS011;61600;48.126;11.542;2023-08-06T07:54:29;1.88;;;0.70;;
73382;SDS011;61600;48.126;11.542;2023-08-06T07:56:55;3.38;;;0.88;;
73382;SDS011;61600;48.126;11.542;2023-08-06T07:59:21;1.75;;;0.75;;
73382;SDS011;61600;48.126;11.542;2023-08-06T08:01:47;0.90;;;0.52;;
73382;SDS011;61600;48.126;11.542;2023-08-06T08:04:12;2.20;;;0.90;;
73382;SDS011;61600;48.126;11.542;2023-08-06T08:06:38;2.63;;;0.70;;
73382;SDS011;61600;48.126;11.542;2023-08-06T08:09:04;1.35;;;0.65;;
73382;SDS011;61600;48.126;11.542;2023-08-06T08:11:29;1.33;;;0.68;;
73382;SDS011;61600;48.126;11.542;2023-08-06T08:13:55;1.65;;;0.80;;
73382;SDS011;61600;48.126;11.542;2023-08-06T08:16:21;2.97;;;0.90;;
73382;SDS011;61600;48.126;11.542;2023-08-06T08:18:47;1.52;;;0.80;;
73382;SDS011;61600;48.126;11.542;2023-08-06T08:21:12;2.45;;;0.73;;
73382;SDS011;61600;48.126;11.542;2023-08-06T08:23:38;4.13;;;0.85;;
73382;SDS011;61600;48.126;11.542;2023-08-06T08:26:04;1.63;;;0.50;;
73382;SDS011;61600;48.126;11.542;2023-08-06T08:28:30;1.45;;;0.38;;
73382;SDS011;61600;48.126;11.542;2023-08-06T08:30:56;2.83;;;0.40;;
73382;SDS011;61600;48.126;11.542;2023-08-06T08:33:21;2.58;;;0.65;;
73382;SDS011;61600;48.126;11.542;2023-08-06T08:35:47;2.17;;;0.65;;
73382;SDS011;61600;48.126;11.542;2023-08-06T08:38:13;1.55;;;0.52;;
73382;SDS011;61600;48.126;11.542;2023-08-06T08:40:41;0.77;;;0.50;;
73382;SDS011;61600;48.126;11.542;2023-08-06T08:43:11;2.70;;;0.50;;
73382;SDS011;61600;48.126;11.542;2023-08-06T08:45:39;2.15;;;0.40;;
73382;SDS011;61600;48.126;11.542;2023-08-06T08:48:07;0.55;;;0.30;;
73382;SDS011;61600;48.126;11.542;2023-08-06T08:50:35;0.80;;;0.38;;
73382;SDS011;61600;48.126;11.542;2023-08-06T08:53:01;1.35;;;0.50;;
73382;SDS011;61600;48.126;11.542;2023-08-06T08:55:27;0.50;;;0.30;;
73382;SDS011;61600;48.126;11.542;2023-08-06T08:57:53;0.28;;;0.20;;
73382;SDS011;61600;48.126;11.542;2023-08-06T09:00:19;1.75;;;0.52;;
73382;SDS011;61600;48.126;11.542;2023-08-06T09:02:44;2.88;;;0.40;;
73382;SDS011;61600;48.126;11.542;2023-08-06T09:05:12;0.43;;;0.32;;
73382;SDS011;61600;48.126;11.542;2023-08-06T09:07:41;1.80;;;0.40;;
73382;SDS011;61600;48.126;11.542;2023-08-06T09:10:11;0.70;;;0.28;;
73382;SDS011;61600;48.126;11.542;2023-08-06T09:12:39;0.65;;;0.20;;
73382;SDS011;61600;48.126;11.542;2023-08-06T09:15:06;2.00;;;0.85;;
73382;SDS011;61600;48.126;11.542;2023-08-06T09:17:32;0.57;;;0.30;;
73382;SDS011;61600;48.126;11.542;2023-08-06T09:19:58;1.65;;;0.47;;
73382;SDS011;61600;48.126;11.542;2023-08-06T09:22:24;0.95;;;0.30;;
73382;SDS011;61600;48.126;11.542;2023-08-06T09:24:51;1.13;;;0.52;;
73382;SDS011;61600;48.126;11.542;2023-08-06T09:27:16;1.98;;;0.68;;
73382;SDS011;61600;48.126;11.542;2023-08-06T09:29:44;1.92;;;0.35;;
73382;SDS011;61600;48.126;11.542;2023-08-06T09:32:14;0.47;;;0.22;;
73382;SDS011;61600;48.126;11.542;2023-08-06T09:34:41;1.58;;;0.30;;
73382;SDS011;61600;48.126;11.542;2023-08-06T09:37:10;1.77;;;0.45;;
73382;SDS011;61600;48.126;11.542;2023-08-06T09:39:37;0.57;;;0.20;;
73382;SDS011;61600;48.126;11.542;2023-08-06T09:42:04;0.85;;;0.40;;
73382;SDS011;61600;48.126;11.542;2023-08-06T09:44:31;1.08;;;0.20;;
73382;SDS011;61600;48.126;11.542;2023-08-06T09:46:58;1.17;;;0.20;;
73382;SDS011;61600;48.126;11.542;2023-08-06T09:49:26;1.17;;;0.10;;
73382;SDS011;61600;48.126;11.542;2023-08-06T09:51:53;0.08;;;0.08;;
73382;SDS011;61600;48.126;11.542;2023-08-06T09:54:24;1.55;;;0.55;;
73382;SDS011;61600;48.126;11.542;2023-08-06T09:56:52;3.38;;;0.30;;
73382;SDS011;61600;48.126;11.542;2023-08-06T10:01:45;1.65;;;0.20;;
73382;SDS011;61600;48.126;11.542;2023-08-06T10:04:12;0.50;;;0.20;;
73382;SDS011;61600;48.126;11.542;2023-08-06T10:06:41;0.40;;;0.10;;
73382;SDS011;61600;48.126;11.542;2023-08-06T10:09:08;1.08;;;0.22;;
73382;SDS011;61600;48.126;11.542;2023-08-06T10:11:36;0.25;;;0.20;;
73382;SDS011;61600;48.126;11.542;2023-08-06T10:14:36;0.55;;;0.28;;
73382;SDS011;61600;48.126;11.542;2023-08-06T10:16:58;0.45;;;0.20;;
73382;SDS011;61600;48.126;11.542;2023-08-06T10:19:25;1.83;;;0.20;;
73382;SDS011;61600;48.126;11.542;2023-08-06T10:22:13;0.47;;;0.17;;
73382;SDS011;61600;48.126;11.542;2023-08-06T10:33:01;0.73;;;0.10;;
73382;SDS011;61600;48.126;11.542;2023-08-06T10:38:18;2.72;;;0.30;;
73382;SDS011;61600;48.126;11.542;2023-08-06T10:40:49;0.10;;;0.10;;
73382;SDS011;61600;48.126;11.542;2023-08-06T10:43:31;1.17;;;0.28;;
73382;SDS011;61600;48.126;11.542;2023-08-06T10:45:59;0.98;;;0.35;;
73382;SDS011;61600;48.126;11.542;2023-08-06T10:48:40;0.43;;;0.10;;
73382;SDS011;61600;48.126;11.542;2023-08-06T10:51:10;0.75;;;0.20;;
73382;SDS011;61600;48.126;11.542;2023-08-06T10:53:44;0.35;;;0.20;;
73382;SDS011;61600;48.126;11.542;2023-08-06T10:56:12;1.30;;;0.47;;
73382;SDS011;61600;48.126;11.542;2023-08-06T10:58:39;0.25;;;0.20;;
73382;SDS011;61600;48.126;11.542;2023-08-06T11:01:06;0.50;;;0.15;;
73382;SDS011;61600;48.126;11.542;2023-08-06T11:03:32;0.65;;;0.30;;
73382;SDS011;61600;48.126;11.542;2023-08-06T11:05:58;0.20;;;0.10;;
73382;SDS011;61600;48.126;11.542;2023-08-06T11:08:27;0.35;;;0.17;;
73382;SDS011;61600;48.126;11.542;2023-08-06T11:10:54;0.17;;;0.17;;
73382;SDS011;61600;48.126;11.542;2023-08-06T11:13:21;0.55;;;0.22;;
73382;SDS011;61600;48.126;11.542;2023-08-06T11:15:47;0.10;;;0.10;;
73382;SDS011;61600;48.126;11.542;2023-08-06T11:18:13;1.38;;;0.30;;
73382;SDS011;61600;48.126;11.542;2023-08-06T11:20:38;0.25;;;0.25;;
73382;SDS011;61600;48.126;11.542;2023-08-06T11:23:05;0.30;;;0.10;;
73382;SDS011;61600;48.126;11.542;2023-08-06T11:25:35;0.43;;;0.20;;
73382;SDS011;61600;48.126;11.542;2023-08-06T11:28:02;0.55;;;0.20;;
73382;SDS011;61600;48.126;11.542;2023-08-06T11:30:28;1.05;;;0.35;;
73382;SDS011;61600;48.126;11.542;2023-08-06T11:32:53;0.50;;;0.20;;
73382;SDS011;61600;48.126;11.542;2023-08-06T11:35:19;0.38;;;0.10;;
73382;SDS011;61600;48.126;11.542;2023-08-06T11:37:45;0.75;;;0.10;;
73382;SDS011;61600;48.126;11.542;2023-08-06T11:40:11;0.22;;;0.10;;
73382;SDS011;61600;48.126;11.542;2023-08-06T11:42:39;1.00;;;0.30;;
73382;SDS011;61600;48.126;11.542;2023-08-06T11:45:05;0.30;;;0.10;;
73382;SDS011;61600;48.126;11.542;2023-08-06T11:47:31;0.55;;;0.15;;
73382;SDS011;61600;48.126;11.542;2023-08-06T11:49:57;0.10;;;0.10;;
73382;SDS011;61600;48.126;11.542;2023-08-06T11:52:23;0.32;;;0.20;;
73382;SDS011;61600;48.126;11.542;2023-08-06T11:57:30;0.08;;;0.05;;
73382;SDS011;61600;48.126;11.542;2023-08-06T12:00:01;0.40;;;0.10;;
73382;SDS011;61600;48.126;11.542;2023-08-06T12:02:32;0.73;;;0.10;;
73382;SDS011;61600;48.126;11.542;2023-08-06T12:07:44;0.05;;;0.05;;
73382;SDS011;61600;48.126;11.542;2023-08-06T12:10:15;0.10;;;0.10;;
73382;SDS011;61600;48.126;11.542;2023-08-06T12:12:41;0.38;;;0.20;;
73382;SDS011;61600;48.126;11.542;2023-08-06T12:15:08;0.50;;;0.20;;
73382;SDS011;61600;48.126;11.542;2023-08-06T12:17:35;0.00;;;0.00;;
73382;SDS011;61600;48.126;11.542;2023-08-06T12:20:01;0.10;;;0.10;;
73382;SDS011;61600;48.126;11.542;2023-08-06T12:22:29;0.30;;;0.10;;
73382;SDS011;61600;48.126;11.542;2023-08-06T12:25:03;1.63;;;0.30;;
73382;SDS011;61600;48.126;11.542;2023-08-06T12:27:33;3.85;;;1.33;;
73382;SDS011;61600;48.126;11.542;2023-08-06T12:30:03;2.30;;;0.93;;
73382;SDS011;61600;48.126;11.542;2023-08-06T12:34:55;0.22;;;0.20;;
73382;SDS011;61600;48.126;11.542;2023-08-06T12:37:21;1.75;;;0.50;;
73382;SDS011;61600;48.126;11.542;2023-08-06T12:39:48;0.35;;;0.20;;
73382;SDS011;61600;48.126;11.542;2023-08-06T12:42:14;1.88;;;0.30;;
73382;SDS011;61600;48.126;11.542;2023-08-06T12:44:39;0.10;;;0.00;;
73382;SDS011;61600;48.126;11.542;2023-08-06T12:47:06;1.60;;;0.30;;
73382;SDS011;61600;48.126;11.542;2023-08-06T12:49:33;0.10;;;0.10;;
73382;SDS011;61600;48.126;11.542;2023-08-06T12:51:59;0.40;;;0.20;;
73382;SDS011;61600;48.126;11.542;2023-08-06T12:54:37;0.17;;;0.17;;
73382;SDS011;61600;48.126;11.542;2023-08-06T12:57:04;0.10;;;0.10;;
73382;SDS011;61600;48.126;11.542;2023-08-06T12:59:30;0.20;;;0.10;;
73382;SDS011;61600;48.126;11.542;2023-08-06T13:01:56;0.30;;;0.30;;
73382;SDS011;61600;48.126;11.542;2023-08-06T13:04:22;0.40;;;0.20;;
73382;SDS011;61600;48.126;11.542;2023-08-06T13:06:48;0.50;;;0.20;;
73382;SDS011;61600;48.126;11.542;2023-08-06T13:09:14;0.85;;;0.20;;
73382;SDS011;61600;48.126;11.542;2023-08-06T13:11:41;1.27;;;0.20;;
73382;SDS011;61600;48.126;11.542;2023-08-06T13:14:08;0.17;;;0.10;;
73382;SDS011;61600;48.126;11.542;2023-08-06T13:16:35;0.22;;;0.13;;
73382;SDS011;61600;48.126;11.542;2023-08-06T13:19:02;0.10;;;0.10;;
73382;SDS011;61600;48.126;11.542;2023-08-06T13:24:03;0.10;;;0.10;;
73382;SDS011;61600;48.126;11.542;2023-08-06T13:26:29;0.70;;;0.30;;
73382;SDS011;61600;48.126;11.542;2023-08-06T13:28:58;0.47;;;0.20;;
73382;SDS011;61600;48.126;11.542;2023-08-06T13:31:25;0.38;;;0.25;;
73382;SDS011;61600;48.126;11.542;2023-08-06T13:33:52;0.10;;;0.10;;
73382;SDS011;61600;48.126;11.542;2023-08-06T13:36:21;0.10;;;0.10;;
73382;SDS011;61600;48.126;11.542;2023-08-06T13:38:48;1.75;;;0.20;;
73382;SDS011;61600;48.126;11.542;2023-08-06T13:41:14;0.68;;;0.20;;
73382;SDS011;61600;48.126;11.542;2023-08-06T13:43:40;0.90;;;0.30;;
73382;SDS011;61600;48.126;11.542;2023-08-06T13:50:58;0.20;;;0.20;;
73382;SDS011;61600;48.126;11.542;2023-08-06T13:53:23;1.38;;;0.40;;
73382;SDS011;61600;48.126;11.542;2023-08-06T13:55:55;1.15;;;0.17;;
73382;SDS011;61600;48.126;11.542;2023-08-06T13:58:22;0.88;;;0.40;;
73382;SDS011;61600;48.126;11.542;2023-08-06T14:00:48;0.63;;;0.25;;
73382;SDS011;61600;48.126;11.542;2023-08-06T14:03:14;0.20;;;0.20;;
73382;SDS011;61600;48.126;11.542;2023-08-06T14:05:41;0.35;;;0.30;;
73382;SDS011;61600;48.126;11.542;2023-08-06T14:08:06;1.23;;;0.30;;
73382;SDS011;61600;48.126;11.542;2023-08-06T14:10:32;0.52;;;0.30;;
73382;SDS011;61600;48.126;11.542;2023-08-06T14:12:58;0.20;;;0.15;;
73382;SDS011;61600;48.126;11.542;2023-08-06T14:15:24;0.35;;;0.30;;
73382;SDS011;61600;48.126;11.542;2023-08-06T14:17:49;0.28;;;0.22;;
73382;SDS011;61600;48.126;11.542;2023-08-06T14:20:15;0.28;;;0.20;;
73382;SDS011;61600;48.126;11.542;2023-08-06T14:22:41;0.50;;;0.30;;
73382;SDS011;61600;48.126;11.542;2023-08-06T14:25:07;1.67;;;0.40;;
73382;SDS011;61600;48.126;11.542;2023-08-06T14:27:33;1.30;;;0.20;;
73382;SDS011;61600;48.126;11.542;2023-08-06T14:29:58;0.15;;;0.15;;
73382;SDS011;61600;48.126;11.542;2023-08-06T14:32:25;3.17;;;0.43;;
73382;SDS011;61600;48.126;11.542;2023-08-06T14:34:51;0.73;;;0.28;;
73382;SDS011;61600;48.126;11.542;2023-08-06T14:37:17;0.90;;;0.40;;
73382;SDS011;61600;48.126;11.542;2023-08-06T14:39:43;1.85;;;0.60;;
73382;SDS011;61600;48.126;11.542;2023-08-06T14:42:09;0.40;;;0.30;;
73382;SDS011;61600;48.126;11.542;2023-08-06T14:44:34;0.70;;;0.35;;
73382;SDS011;61600;48.126;11.542;2023-08-06T14:47:00;0.93;;;0.52;;
73382;SDS011;61600;48.126;11.542;2023-08-06T14:49:26;1.27;;;0.50;;
73382;SDS011;61600;48.126;11.542;2023-08-06T14:51:51;0.52;;;0.43;;
73382;SDS011;61600;48.126;11.542;2023-08-06T14:54:17;1.10;;;0.40;;
73382;SDS011;61600;48.126;11.542;2023-08-06T14:56:43;0.73;;;0.40;;
73382;SDS011;61600;48.126;11.542;2023-08-06T14:59:09;1.75;;;0.32;;
73382;SDS011;61600;48.126;11.542;2023-08-06T15:01:35;1.10;;;0.30;;
73382;SDS011;61600;48.126;11.542;2023-08-06T15:04:01;1.15;;;0.60;;
73382;SDS011;61600;48.126;11.542;2023-08-06T15:06:26;2.72;;;0.60;;
73382;SDS011;61600;48.126;11.542;2023-08-06T15:08:52;2.03;;;0.40;;
73382;SDS011;61600;48.126;11.542;2023-08-06T15:13:45;0.52;;;0.40;;